Time;durP1;ratioP1;P1;durP2;ratioP2;P2;SDS_P1;SDS_P2;PMS_P1;PMS_P2;Temp;Humidity;BMP_temperature;BMP_pressure;BME280_temperature;BME280_humidity;BME280_pressure;Samples;Min_cycle;Max_cycle;Signal;HPM_P1;HPM_P2
2023/12/20 00:02:21;;;;;;;1.53;1.40;;;10.60;66.10;9.30;96349.00;;;;4976142;28;20230;-91
2023/12/20 00:04:48;;;;;;;1.70;1.60;;;10.60;65.90;9.30;96345.00;;;;4975958;28;20281;-90
2023/12/20 00:07:16;;;;;;;2.30;1.90;;;10.60;65.90;9.30;96339.00;;;;4975568;28;20254;-90
2023/12/20 00:09:43;;;;;;;1.40;1.30;;;10.60;65.70;9.40;96338.00;;;;4975030;28;20242;-90
2023/12/20 00:12:12;;;;;;;1.60;1.20;;;10.60;65.70;9.40;96328.00;;;;4975745;28;20226;-90
2023/12/20 00:14:39;;;;;;;1.50;1.37;;;10.70;65.70;9.40;96329.00;;;;4975501;28;20267;-89
2023/12/20 00:17:06;;;;;;;1.30;1.20;;;10.70;65.70;9.50;96322.00;;;;4975610;28;20258;-90
2023/12/20 00:19:33;;;;;;;2.13;1.60;;;10.80;65.70;9.50;96320.00;;;;4976198;28;20192;-90
2023/12/20 00:22:00;;;;;;;1.33;1.13;;;10.70;65.60;9.50;96324.00;;;;4975664;28;20203;-90
2023/12/20 00:24:27;;;;;;;1.37;1.27;;;10.80;65.50;9.50;96328.00;;;;4976375;28;20625;-91
2023/12/20 00:26:54;;;;;;;1.13;1.03;;;10.80;65.30;9.60;96324.00;;;;4976064;28;20230;-90
2023/12/20 00:29:23;;;;;;;1.37;1.10;;;10.80;65.30;9.60;96320.00;;;;4976033;28;20226;-90
2023/12/20 00:31:50;;;;;;;1.20;1.10;;;10.80;65.10;9.60;96305.00;;;;4976543;28;20246;-90
2023/12/20 00:34:17;;;;;;;1.60;1.50;;;10.80;65.10;9.60;96307.00;;;;4994439;28;20202;-90
2023/12/20 00:36:44;;;;;;;0.90;0.90;;;10.90;65.10;9.70;96305.00;;;;4977111;28;20269;-90
2023/12/20 00:39:11;;;;;;;0.90;0.90;;;10.90;64.90;9.70;96292.00;;;;4974723;28;20246;-90
2023/12/20 00:41:39;;;;;;;2.67;1.10;;;10.90;65.00;9.70;96296.00;;;;4974407;28;20549;-90
2023/12/20 00:44:06;;;;;;;1.37;1.27;;;10.90;65.20;9.70;96279.00;;;;4974294;28;20226;-91
2023/12/20 00:46:34;;;;;;;1.47;1.03;;;10.90;65.10;9.70;96289.00;;;;4974000;28;20219;-90
2023/12/20 00:49:02;;;;;;;1.60;1.30;;;11.00;64.90;9.80;96294.00;;;;4974730;28;20246;-90
2023/12/20 00:51:29;;;;;;;1.30;1.20;;;11.00;65.10;9.70;96282.00;;;;4975400;28;20583;-90
2023/12/20 00:53:56;;;;;;;1.70;1.33;;;11.00;64.90;9.80;96279.00;;;;4975472;28;20236;-91
2023/12/20 00:56:23;;;;;;;1.40;1.20;;;11.00;64.80;9.80;96281.00;;;;4975498;28;20322;-90
2023/12/20 00:58:50;;;;;;;1.50;1.40;;;11.00;64.70;9.80;96277.00;;;;4975499;28;20282;-90
2023/12/20 01:01:18;;;;;;;1.20;1.10;;;11.00;64.60;9.80;96268.00;;;;4975115;28;20203;-90
2023/12/20 01:03:46;;;;;;;1.37;1.27;;;11.00;65.40;9.80;96286.00;;;;4975628;28;20226;-90
2023/12/20 01:06:14;;;;;;;1.40;1.30;;;11.10;64.50;9.80;96279.00;;;;4975117;28;20258;-90
2023/12/20 01:08:41;;;;;;;1.50;1.20;;;11.10;64.60;9.80;96293.00;;;;4975198;28;20226;-90
2023/12/20 01:11:08;;;;;;;1.20;1.10;;;11.10;64.60;9.90;96282.00;;;;4975253;28;20581;-91
2023/12/20 01:13:36;;;;;;;1.60;1.30;;;11.10;64.50;9.90;96284.00;;;;4975456;28;20652;-91
2023/12/20 01:16:04;;;;;;;1.60;1.20;;;11.10;64.60;9.90;96277.00;;;;4975308;28;20298;-91
2023/12/20 01:18:31;;;;;;;0.90;0.90;;;11.10;64.70;9.90;96295.00;;;;4989282;28;20602;-90
2023/12/20 01:21:04;;;;;;;1.53;1.30;;;11.10;64.70;9.90;96289.00;;;;4990065;28;20247;-90
2023/12/20 01:23:31;;;;;;;1.30;1.20;;;11.10;64.10;9.90;96292.00;;;;4975181;28;20218;-90
2023/12/20 01:25:59;;;;;;;1.50;1.30;;;11.10;64.50;9.90;96275.00;;;;4974823;28;20687;-90
2023/12/20 01:28:26;;;;;;;1.23;1.13;;;11.20;64.40;9.90;96268.00;;;;4974661;28;20215;-91
2023/12/20 01:30:53;;;;;;;1.23;1.10;;;11.20;64.70;9.90;96270.00;;;;4974493;28;20253;-91
2023/12/20 01:33:21;;;;;;;1.40;1.30;;;11.20;64.70;10.00;96274.00;;;;4973856;28;20255;-90
2023/12/20 01:35:48;;;;;;;1.40;1.30;;;11.20;64.70;10.00;96271.00;;;;4974039;28;20246;-90
2023/12/20 01:38:18;;;;;;;1.50;1.30;;;11.20;64.80;10.00;96276.00;;;;4973715;28;20321;-91
2023/12/20 01:40:45;;;;;;;1.60;1.50;;;11.30;64.50;10.00;96273.00;;;;4974409;28;20653;-91
2023/12/20 01:43:13;;;;;;;1.50;1.40;;;11.30;65.30;10.00;96268.00;;;;4973444;28;20195;-91
2023/12/20 01:45:40;;;;;;;1.67;1.20;;;11.30;64.60;10.00;96259.00;;;;4973653;28;20257;-90
2023/12/20 01:48:10;;;;;;;1.30;1.20;;;11.30;64.40;10.00;96253.00;;;;4974442;28;20203;-91
2023/12/20 01:50:38;;;;;;;1.30;1.20;;;11.30;64.40;10.10;96241.00;;;;4976511;28;20290;-91
2023/12/20 01:53:09;;;;;;;1.93;1.43;;;11.30;64.70;10.10;96242.00;;;;4978313;28;20294;-90
2023/12/20 01:55:41;;;;;;;1.53;1.43;;;11.40;64.50;10.10;96240.00;;;;4978015;28;20231;-90
2023/12/20 01:58:11;;;;;;;1.53;1.40;;;11.40;64.40;10.10;96228.00;;;;4977741;28;20207;-89
2023/12/20 02:00:39;;;;;;;1.37;1.27;;;11.40;64.40;10.10;96229.00;;;;4977784;28;20289;-90
2023/12/20 02:03:06;;;;;;;1.50;1.27;;;11.40;64.60;10.10;96219.00;;;;4978788;28;20215;-90
2023/12/20 02:05:36;;;;;;;1.40;1.30;;;11.40;64.70;10.10;96230.00;;;;4978280;28;20253;-91
2023/12/20 02:08:04;;;;;;;1.40;1.30;;;11.40;64.50;10.20;96217.00;;;;4978313;28;20286;-90
2023/12/20 02:10:31;;;;;;;1.57;1.03;;;11.40;64.40;10.20;96201.00;;;;4978303;28;20215;-90
2023/12/20 02:13:00;;;;;;;1.57;1.47;;;11.40;64.40;10.20;96194.00;;;;4977984;28;20196;-91
2023/12/20 02:15:27;;;;;;;1.30;1.20;;;11.50;64.40;10.20;96200.00;;;;4976934;28;20250;-91
2023/12/20 02:17:55;;;;;;;1.37;1.27;;;11.50;64.70;10.20;96188.00;;;;4976143;28;20270;-92
2023/12/20 02:20:23;;;;;;;1.60;1.50;;;11.50;65.30;10.20;96191.00;;;;4976490;28;20282;-91
2023/12/20 02:22:51;;;;;;;1.00;1.00;;;11.50;64.60;10.20;96183.00;;;;4978070;28;20282;-90
2023/12/20 02:25:18;;;;;;;1.43;1.30;;;11.50;64.50;10.20;96177.00;;;;4977734;28;20242;-91
2023/12/20 02:27:45;;;;;;;1.50;1.40;;;11.50;64.60;10.20;96173.00;;;;4976540;28;20699;-91
2023/12/20 02:30:13;;;;;;;1.40;1.30;;;11.50;64.50;10.20;96180.00;;;;4975772;28;20279;-90
2023/12/20 02:32:40;;;;;;;2.50;1.20;;;11.50;64.40;10.20;96178.00;;;;4976448;28;20195;-90
2023/12/20 02:35:08;;;;;;;1.23;1.13;;;11.50;64.40;10.20;96177.00;;;;4976384;28;20262;-90
2023/12/20 02:37:35;;;;;;;1.90;1.30;;;11.50;64.60;10.20;96180.00;;;;4976197;28;20274;-90
2023/12/20 02:40:05;;;;;;;1.60;1.50;;;11.50;64.70;10.20;96173.00;;;;4975523;28;20294;-91
2023/12/20 02:42:32;;;;;;;1.10;1.00;;;11.50;64.60;10.20;96166.00;;;;4971871;28;20208;-92
2023/12/20 02:44:59;;;;;;;1.10;1.00;;;11.50;64.70;10.20;96173.00;;;;4984934;28;20285;-91
2023/12/20 02:47:26;;;;;;;1.37;1.27;;;11.50;64.50;10.20;96171.00;;;;4981368;28;20227;-92
2023/12/20 02:49:54;;;;;;;1.00;1.00;;;11.50;64.60;10.20;96180.00;;;;4971485;28;20187;-92
2023/12/20 02:52:21;;;;;;;1.20;1.10;;;11.50;64.50;10.10;96194.00;;;;4975425;28;20230;-93
2023/12/20 02:54:48;;;;;;;1.73;1.03;;;11.40;64.30;10.10;96193.00;;;;4977308;28;20652;-92
2023/12/20 02:57:16;;;;;;;1.70;1.00;;;11.40;64.30;10.10;96191.00;;;;4971641;28;20314;-92
2023/12/20 02:59:44;;;;;;;0.83;0.83;;;11.40;65.00;10.10;96162.00;;;;4979769;28;20262;-92
2023/12/20 03:02:11;;;;;;;1.10;1.00;;;11.40;64.40;10.10;96183.00;;;;4988054;28;20241;-93
2023/12/20 03:04:38;;;;;;;1.20;1.10;;;11.40;64.40;10.10;96175.00;;;;4983037;28;20294;-91
2023/12/20 03:07:05;;;;;;;1.23;1.17;;;11.40;64.40;10.10;96172.00;;;;4984963;28;20199;-93
2023/12/20 03:09:32;;;;;;;1.47;1.37;;;11.40;64.50;10.10;96173.00;;;;4970875;28;20266;-92
2023/12/20 03:11:59;;;;;;;1.20;0.93;;;11.40;64.40;10.20;96171.00;;;;4982524;28;20204;-92
2023/12/20 03:14:28;;;;;;;0.70;0.70;;;11.40;64.40;10.10;96176.00;;;;4982853;28;20269;-92
2023/12/20 03:16:55;;;;;;;0.90;0.90;;;11.40;64.30;10.20;96185.00;;;;4983934;28;20254;-92
2023/12/20 03:19:23;;;;;;;0.77;0.77;;;11.40;64.40;10.20;96186.00;;;;4993351;28;20210;-93
2023/12/20 03:21:50;;;;;;;0.90;0.90;;;11.50;64.40;10.20;96187.00;;;;4966946;28;20262;-93
2023/12/20 03:24:17;;;;;;;0.97;0.80;;;11.40;64.40;10.20;96195.00;;;;4976059;28;20207;-92
2023/12/20 03:26:44;;;;;;;1.03;1.03;;;11.50;64.50;10.20;96199.00;;;;4973477;28;20195;-92
2023/12/20 03:29:11;;;;;;;1.33;0.80;;;11.50;64.50;10.30;96197.00;;;;4978025;28;20238;-93
2023/12/20 03:31:40;;;;;;;0.90;0.90;;;11.50;64.70;10.30;96194.00;;;;4984701;28;20291;-92
2023/12/20 03:34:07;;;;;;;1.27;0.80;;;11.50;64.50;10.30;96198.00;;;;4980912;28;20225;-92
2023/12/20 03:36:34;;;;;;;1.47;1.37;;;11.50;64.60;10.30;96198.00;;;;4975179;28;22136;-92
2023/12/20 03:39:01;;;;;;;0.97;0.97;;;11.50;64.60;10.30;96196.00;;;;4976234;28;20258;-92
2023/12/20 03:41:28;;;;;;;0.73;0.73;;;11.50;64.60;10.30;96203.00;;;;4983613;28;20247;-92
2023/12/20 03:43:55;;;;;;;0.90;0.90;;;11.60;64.90;10.30;96200.00;;;;4984080;28;20254;-93
2023/12/20 03:46:23;;;;;;;1.37;1.27;;;11.60;64.90;10.30;96207.00;;;;4975972;28;20237;-93
2023/12/20 03:48:51;;;;;;;1.03;0.90;;;11.60;64.90;10.30;96206.00;;;;4976797;28;20203;-93
2023/12/20 03:51:18;;;;;;;1.70;1.03;;;11.60;64.90;10.30;96204.00;;;;4972085;28;20223;-92
2023/12/20 03:53:45;;;;;;;0.90;0.80;;;11.60;65.00;10.30;96219.00;;;;4973333;28;20203;-93
2023/12/20 03:56:13;;;;;;;0.93;0.90;;;11.60;65.20;10.30;96228.00;;;;4989583;28;20254;-93
2023/12/20 03:58:40;;;;;;;0.83;0.70;;;11.60;65.20;10.30;96223.00;;;;4984231;28;20255;-93
2023/12/20 04:01:12;;;;;;;1.00;0.90;;;11.60;66.00;10.30;96238.00;;;;4980145;28;20207;-93
2023/12/20 04:03:40;;;;;;;1.10;1.00;;;11.60;65.20;10.30;96240.00;;;;4977841;28;20207;-92
2023/12/20 04:06:08;;;;;;;0.90;0.90;;;11.60;65.70;10.30;96213.00;;;;4976687;28;20235;-93
2023/12/20 04:08:35;;;;;;;1.00;1.00;;;11.60;65.90;10.30;96239.00;;;;4978674;28;20207;-93
2023/12/20 04:11:03;;;;;;;0.70;0.70;;;11.60;66.20;10.20;96231.00;;;;4984343;28;20286;-92
2023/12/20 04:13:30;;;;;;;1.13;1.03;;;11.50;66.30;10.20;96238.00;;;;4985869;28;20242;-92
2023/12/20 04:15:57;;;;;;;0.80;0.80;;;11.50;66.70;10.10;96236.00;;;;4985528;28;20709;-93
2023/12/20 04:18:24;;;;;;;1.07;0.97;;;11.50;67.20;10.10;96220.00;;;;4977034;28;20219;-93
2023/12/20 04:20:51;;;;;;;0.70;0.70;;;11.40;67.40;10.10;96227.00;;;;4982639;28;20213;-93
2023/12/20 04:23:20;;;;;;;0.70;0.70;;;11.40;67.70;10.00;96220.00;;;;4980442;28;20211;-91
2023/12/20 04:25:47;;;;;;;0.90;0.90;;;11.40;68.00;10.00;96212.00;;;;4980820;28;20671;-92
2023/12/20 04:28:14;;;;;;;0.80;0.80;;;11.30;68.20;9.90;96227.00;;;;4977069;28;20233;-92
2023/12/20 04:30:42;;;;;;;1.00;0.90;;;11.30;68.70;9.90;96216.00;;;;4981763;28;20223;-92
2023/12/20 04:33:09;;;;;;;0.80;0.80;;;11.20;69.10;9.80;96230.00;;;;4984806;28;20284;-92
2023/12/20 04:35:36;;;;;;;0.90;0.83;;;11.20;69.30;9.80;96228.00;;;;4982496;28;20252;-93
2023/12/20 04:38:04;;;;;;;1.10;1.00;;;11.10;69.20;9.70;96233.00;;;;4980761;28;20265;-93
2023/12/20 04:40:32;;;;;;;1.30;1.20;;;11.10;69.60;9.70;96234.00;;;;4989106;28;20222;-93
2023/12/20 04:42:59;;;;;;;1.10;1.00;;;11.00;69.80;9.60;96239.00;;;;4991088;28;20251;-93
2023/12/20 04:45:27;;;;;;;0.90;0.73;;;11.00;70.10;9.60;96237.00;;;;4987909;28;20259;-93
2023/12/20 04:47:54;;;;;;;0.80;0.80;;;11.00;70.40;9.60;96248.00;;;;4981825;28;20251;-93
2023/12/20 04:50:21;;;;;;;0.93;0.90;;;10.90;70.40;9.50;96243.00;;;;4976714;28;20199;-93
2023/12/20 04:52:48;;;;;;;0.77;0.73;;;10.90;70.80;9.50;96253.00;;;;4962037;28;20203;-91
2023/12/20 04:55:17;;;;;;;0.87;0.87;;;10.80;71.10;9.50;96249.00;;;;4957072;28;20287;-92
2023/12/20 04:57:45;;;;;;;1.30;1.20;;;10.80;71.40;9.40;96248.00;;;;4975424;28;20249;-92
2023/12/20 05:00:15;;;;;;;0.63;0.63;;;10.80;71.70;9.40;96249.00;;;;4973545;28;20230;-92
2023/12/20 05:02:42;;;;;;;0.73;0.73;;;10.80;71.90;9.40;96252.00;;;;4975620;28;20210;-92
2023/12/20 05:05:10;;;;;;;1.20;0.90;;;10.70;72.20;9.30;96248.00;;;;4984298;28;20651;-93
2023/12/20 05:07:37;;;;;;;0.77;0.77;;;10.70;72.50;9.30;96242.00;;;;4977378;28;20258;-93
2023/12/20 05:10:05;;;;;;;0.80;0.80;;;10.70;72.60;9.30;96247.00;;;;4972226;28;20231;-92
2023/12/20 05:12:32;;;;;;;0.90;0.90;;;10.70;72.60;9.30;96254.00;;;;4964967;28;20207;-91
2023/12/20 05:15:01;;;;;;;1.53;0.80;;;10.70;72.90;9.20;96251.00;;;;4976540;28;20643;-91
2023/12/20 05:17:28;;;;;;;0.90;0.90;;;10.60;73.00;9.20;96254.00;;;;4976066;28;20210;-92
2023/12/20 05:20:03;;;;;;;1.20;1.00;;;10.60;73.20;9.20;96258.00;;;;4976435;28;20199;-92
2023/12/20 05:22:30;;;;;;;1.47;1.37;;;10.60;73.50;9.20;96257.00;;;;4973782;28;20218;-86
2023/12/20 05:24:57;;;;;;;1.63;1.53;;;10.60;73.60;9.20;96265.00;;;;4972092;28;20275;-86
2023/12/20 05:27:24;;;;;;;2.87;1.57;;;10.50;73.80;9.20;96268.00;;;;4972177;28;20283;-85
2023/12/20 05:29:51;;;;;;;1.70;1.57;;;10.50;74.00;9.20;96271.00;;;;4973827;28;20295;-85
2023/12/20 05:32:20;;;;;;;1.40;1.23;;;10.50;74.10;9.20;96271.00;;;;4974342;28;20214;-85
2023/12/20 05:34:47;;;;;;;1.23;1.13;;;10.50;74.30;9.20;96268.00;;;;4974525;28;20219;-85
2023/12/20 05:37:14;;;;;;;1.20;1.00;;;10.50;74.30;9.20;96268.00;;;;4974435;28;20291;-85
2023/12/20 05:39:41;;;;;;;1.23;1.13;;;10.50;74.50;9.20;96281.00;;;;4974196;28;20255;-86
2023/12/20 05:42:08;;;;;;;1.43;1.13;;;10.50;74.70;9.20;96280.00;;;;4974339;28;20234;-85
2023/12/20 05:44:37;;;;;;;2.60;1.00;;;10.50;74.90;9.20;96277.00;;;;4974892;28;20234;-85
2023/12/20 05:47:04;;;;;;;0.80;0.80;;;10.50;75.10;9.20;96270.00;;;;4975575;28;20363;-86
2023/12/20 05:49:33;;;;;;;1.10;1.00;;;10.50;75.10;9.20;96291.00;;;;4974868;28;20242;-86
2023/12/20 05:52:00;;;;;;;0.97;0.97;;;10.50;75.10;9.20;96298.00;;;;4975994;28;20238;-85
2023/12/20 05:54:27;;;;;;;1.33;0.90;;;11.30;75.70;9.20;96299.00;;;;4975254;28;20242;-86
2023/12/20 05:56:54;;;;;;;0.93;0.93;;;10.50;75.20;9.20;96305.00;;;;4975306;28;20640;-85
2023/12/20 05:59:21;;;;;;;0.97;0.97;;;10.50;75.30;9.20;96305.00;;;;4975278;28;20255;-86
2023/12/20 06:01:48;;;;;;;0.70;0.70;;;10.50;75.40;9.20;96304.00;;;;4975704;28;20207;-85
2023/12/20 06:04:16;;;;;;;1.00;0.90;;;10.50;75.50;9.20;96306.00;;;;4975729;28;20230;-85
2023/12/20 06:06:45;;;;;;;0.80;0.70;;;10.50;75.40;9.20;96314.00;;;;4973747;28;20241;-85
2023/12/20 06:09:12;;;;;;;1.00;0.90;;;10.50;75.50;9.20;96315.00;;;;4974166;28;20226;-85
2023/12/20 06:11:39;;;;;;;0.73;0.73;;;10.50;75.60;9.10;96319.00;;;;4972714;28;20241;-85
2023/12/20 06:14:07;;;;;;;0.70;0.70;;;10.50;75.70;9.10;96324.00;;;;4972236;28;20286;-85
2023/12/20 06:16:34;;;;;;;0.90;0.90;;;10.50;75.80;9.10;96333.00;;;;4971540;28;20251;-86
2023/12/20 06:19:01;;;;;;;0.70;0.70;;;10.50;75.80;9.10;96321.00;;;;4972100;28;20286;-85
2023/12/20 06:21:30;;;;;;;1.00;0.70;;;10.40;75.80;9.10;96329.00;;;;4972393;28;20207;-85
2023/12/20 06:24:00;;;;;;;0.90;0.90;;;10.50;75.90;9.10;96326.00;;;;4971992;28;20230;-86
2023/12/20 06:26:27;;;;;;;0.80;0.80;;;10.40;76.10;9.10;96339.00;;;;4974445;28;20683;-86
2023/12/20 06:28:55;;;;;;;1.10;1.10;;;10.40;76.10;9.10;96342.00;;;;4974073;28;20231;-87
2023/12/20 06:31:23;;;;;;;0.90;0.70;;;10.40;76.20;9.10;96349.00;;;;4973900;28;20214;-85
2023/12/20 06:33:57;;;;;;;0.77;0.77;;;10.40;76.30;9.10;96337.00;;;;4973710;28;20282;-85
2023/12/20 06:36:24;;;;;;;0.63;0.63;;;10.40;76.40;9.00;96341.00;;;;4976078;28;20234;-85
2023/12/20 06:38:52;;;;;;;0.83;0.70;;;10.40;76.70;9.00;96344.00;;;;4976182;28;20258;-86
2023/12/20 06:41:20;;;;;;;1.13;0.70;;;10.40;76.70;9.00;96342.00;;;;4976049;28;20215;-85
2023/12/20 06:43:48;;;;;;;0.97;0.97;;;10.40;76.70;9.00;96355.00;;;;4976229;28;20282;-85
2023/12/20 06:46:15;;;;;;;0.83;0.83;;;10.40;76.90;9.00;96352.00;;;;4976472;28;20219;-85
2023/12/20 06:48:43;;;;;;;1.10;1.00;;;10.40;77.10;9.00;96360.00;;;;4977010;28;20309;-85
2023/12/20 06:51:15;;;;;;;0.70;0.70;;;10.30;77.00;9.00;96350.00;;;;4977070;28;20286;-86
2023/12/20 06:53:42;;;;;;;0.80;0.80;;;10.30;77.10;8.90;96336.00;;;;4977078;28;20748;-84
2023/12/20 06:56:11;;;;;;;1.50;1.40;;;10.30;77.00;8.90;96342.00;;;;4981160;28;20223;-84
2023/12/20 06:58:40;;;;;;;1.40;1.30;;;10.30;77.20;9.00;96357.00;;;;4981292;28;20246;-84
2023/12/20 07:01:12;;;;;;;1.40;1.20;;;10.30;77.30;9.00;96362.00;;;;4973741;28;20230;-83
2023/12/20 07:03:40;;;;;;;1.03;1.00;;;10.30;77.30;9.00;96383.00;;;;4982790;28;20206;-84
2023/12/20 07:06:07;;;;;;;0.87;0.87;;;10.30;77.30;9.00;96394.00;;;;4979394;28;20219;-84
2023/12/20 07:08:34;;;;;;;0.70;0.70;;;10.40;77.30;9.00;96389.00;;;;4977940;28;20261;-84
2023/12/20 07:11:01;;;;;;;0.73;0.73;;;10.40;77.30;9.00;96399.00;;;;4981028;28;20668;-84
2023/12/20 07:13:28;;;;;;;0.70;0.70;;;10.40;77.10;9.00;96405.00;;;;4974173;28;20207;-84
2023/12/20 07:15:57;;;;;;;0.77;0.77;;;10.40;77.10;9.00;96388.00;;;;4974553;28;20742;-84
2023/12/20 07:18:24;;;;;;;0.70;0.70;;;10.40;77.00;9.10;96406.00;;;;4982592;28;20479;-84
2023/12/20 07:20:51;;;;;;;0.77;0.67;;;10.40;77.00;9.00;96399.00;;;;4976440;28;20231;-84
2023/12/20 07:23:19;;;;;;;0.80;0.80;;;10.40;76.90;9.10;96398.00;;;;4973357;28;20208;-85
2023/12/20 07:25:47;;;;;;;0.70;0.70;;;10.40;76.80;9.10;96400.00;;;;4972579;28;20610;-84
2023/12/20 07:28:14;;;;;;;1.53;1.10;;;10.40;77.10;9.00;96405.00;;;;4979680;28;20230;-83
2023/12/20 07:30:41;;;;;;;1.77;1.03;;;10.40;76.90;9.00;96394.00;;;;4992705;28;20226;-84
2023/12/20 07:33:10;;;;;;;1.40;1.30;;;10.40;76.80;9.00;96411.00;;;;4994028;28;20214;-84
2023/12/20 07:35:37;;;;;;;1.53;1.10;;;10.40;76.70;9.00;96404.00;;;;4985024;28;20304;-84
2023/12/20 07:38:04;;;;;;;1.80;1.27;;;10.40;76.70;9.00;96398.00;;;;4990545;28;20258;-84
2023/12/20 07:40:31;;;;;;;1.87;1.77;;;10.40;76.70;9.00;96416.00;;;;4976900;28;20673;-83
2023/12/20 07:42:58;;;;;;;1.90;1.80;;;10.40;76.60;9.00;96413.00;;;;4974938;28;20324;-83
2023/12/20 07:45:26;;;;;;;1.70;1.60;;;10.40;76.60;8.90;96413.00;;;;4974601;28;20219;-84
2023/12/20 07:47:53;;;;;;;2.50;1.80;;;10.30;76.40;8.90;96411.00;;;;4969232;28;20224;-84
2023/12/20 07:50:21;;;;;;;1.60;1.50;;;10.30;76.40;8.90;96403.00;;;;4987077;28;20225;-84
2023/12/20 07:52:49;;;;;;;1.60;1.50;;;10.30;76.40;8.80;96406.00;;;;4991244;28;20642;-84
2023/12/20 07:55:16;;;;;;;1.60;1.50;;;10.40;76.60;8.80;96414.00;;;;4976459;28;20253;-84
2023/12/20 07:57:43;;;;;;;1.83;1.73;;;10.20;76.50;8.80;96404.00;;;;4971305;28;20231;-84
2023/12/20 08:00:12;;;;;;;1.60;1.50;;;10.20;76.50;8.80;96426.00;;;;4973979;28;20256;-84
2023/12/20 08:02:40;;;;;;;1.90;1.80;;;10.20;76.60;8.80;96421.00;;;;4971587;28;20196;-84
2023/12/20 08:05:08;;;;;;;1.93;1.83;;;10.20;76.60;8.80;96420.00;;;;4980164;28;20306;-84
2023/12/20 08:07:37;;;;;;;1.80;1.70;;;10.20;76.60;8.90;96423.00;;;;4986382;28;20203;-84
2023/12/20 08:10:05;;;;;;;1.70;1.60;;;10.20;76.60;8.80;96421.00;;;;4972762;28;20234;-84
2023/12/20 08:12:33;;;;;;;1.63;1.53;;;10.20;76.60;8.90;96451.00;;;;4971718;28;20282;-83
2023/12/20 08:15:00;;;;;;;1.60;1.50;;;10.20;76.70;8.90;96445.00;;;;4983830;28;20687;-84
2023/12/20 08:17:27;;;;;;;1.80;1.70;;;10.20;76.70;8.80;96448.00;;;;4977471;28;20231;-84
2023/12/20 08:19:55;;;;;;;2.00;1.90;;;10.20;76.70;8.80;96449.00;;;;4970032;28;20314;-84
2023/12/20 08:22:22;;;;;;;1.90;1.80;;;10.20;76.80;8.90;96447.00;;;;4974411;28;20294;-84
2023/12/20 08:24:50;;;;;;;2.07;1.97;;;10.20;76.80;8.90;96445.00;;;;4980297;28;20645;-84
2023/12/20 08:27:17;;;;;;;2.13;1.90;;;10.20;76.70;8.90;96452.00;;;;4987935;28;20231;-84
2023/12/20 08:29:45;;;;;;;2.33;2.13;;;10.20;76.90;8.90;96450.00;;;;4982571;28;20230;-84
2023/12/20 08:32:12;;;;;;;1.90;1.80;;;10.30;76.90;8.90;96443.00;;;;4979703;28;20192;-83
2023/12/20 08:34:40;;;;;;;1.87;1.77;;;10.30;77.30;8.90;96445.00;;;;4972358;28;20219;-84
2023/12/20 08:37:07;;;;;;;2.57;2.07;;;10.30;77.10;8.90;96438.00;;;;4975781;28;20558;-84
2023/12/20 08:39:34;;;;;;;2.30;2.10;;;10.30;77.00;8.90;96454.00;;;;4979090;28;20262;-84
2023/12/20 08:42:03;;;;;;;2.17;1.97;;;10.30;77.10;9.00;96451.00;;;;4973068;28;20643;-84
2023/12/20 08:44:30;;;;;;;1.90;1.80;;;10.30;77.20;9.00;96453.00;;;;4982656;28;20202;-84
2023/12/20 08:46:57;;;;;;;2.20;2.00;;;10.30;77.30;9.00;96443.00;;;;4979841;28;20254;-84
2023/12/20 08:49:25;;;;;;;1.90;1.80;;;10.30;77.30;9.00;96450.00;;;;4971981;28;20204;-83
2023/12/20 08:51:52;;;;;;;2.27;2.07;;;10.30;77.30;9.00;96447.00;;;;4968824;28;20204;-84
2023/12/20 08:54:19;;;;;;;1.90;1.80;;;10.40;77.40;9.10;96443.00;;;;4981673;28;20242;-84
2023/12/20 08:56:47;;;;;;;1.90;1.80;;;10.40;77.50;9.10;96441.00;;;;4981322;28;20301;-84
2023/12/20 08:59:15;;;;;;;2.93;2.73;;;10.40;77.40;9.10;96449.00;;;;4976731;28;20235;-84
2023/12/20 09:01:42;;;;;;;2.17;1.97;;;10.40;77.50;9.20;96439.00;;;;4975479;28;20235;-84
2023/12/20 09:04:09;;;;;;;1.90;1.80;;;10.50;77.60;9.20;96449.00;;;;4968958;28;20204;-84
2023/12/20 09:06:37;;;;;;;1.80;1.70;;;10.50;77.60;9.20;96450.00;;;;4986652;28;20249;-84
2023/12/20 09:09:04;;;;;;;2.13;1.93;;;10.60;77.60;9.30;96445.00;;;;4977507;28;20203;-84
2023/12/20 09:11:31;;;;;;;2.07;1.87;;;10.60;77.50;9.30;96447.00;;;;4989666;28;20805;-84
2023/12/20 09:13:58;;;;;;;1.90;1.80;;;10.60;77.60;9.40;96437.00;;;;4984482;28;20234;-84
2023/12/20 09:16:26;;;;;;;1.93;1.83;;;10.70;77.80;9.40;96445.00;;;;4991466;28;20309;-84
2023/12/20 09:18:54;;;;;;;1.60;1.50;;;10.70;77.70;9.50;96449.00;;;;4991795;28;20203;-84
2023/12/20 09:21:21;;;;;;;1.50;1.40;;;10.80;77.60;9.50;96459.00;;;;4991041;28;20644;-84
2023/12/20 09:23:49;;;;;;;1.87;1.73;;;10.80;77.50;9.60;96449.00;;;;4988836;28;20677;-84
2023/12/20 09:26:16;;;;;;;1.87;1.77;;;10.80;78.10;9.60;96448.00;;;;4981177;28;20339;-84
2023/12/20 09:28:43;;;;;;;1.60;1.40;;;10.90;77.40;9.70;96451.00;;;;4976458;28;20282;-84
2023/12/20 09:31:10;;;;;;;1.40;1.30;;;10.90;77.30;9.70;96463.00;;;;4973158;28;20234;-84
2023/12/20 09:33:39;;;;;;;1.40;1.30;;;11.00;77.10;9.70;96459.00;;;;4976346;28;20201;-83
2023/12/20 09:36:07;;;;;;;1.57;1.47;;;11.00;76.90;9.70;96458.00;;;;4978926;28;20242;-84
2023/12/20 09:38:34;;;;;;;1.80;1.70;;;11.00;76.90;9.70;96449.00;;;;4975494;28;20302;-84
2023/12/20 09:41:03;;;;;;;1.40;1.30;;;11.00;77.00;9.70;96453.00;;;;4976004;28;20231;-83
2023/12/20 09:43:32;;;;;;;1.40;1.30;;;11.10;77.10;9.70;96444.00;;;;4981430;28;20199;-84
2023/12/20 09:46:06;;;;;;;3.13;1.13;;;11.00;77.00;9.70;96454.00;;;;4972239;28;20306;-84
2023/12/20 09:48:47;;;;;;;1.40;1.30;;;11.00;76.90;9.70;96451.00;;;;4976482;28;20214;-83
2023/12/20 09:51:16;;;;;;;1.30;1.20;;;11.00;76.70;9.70;96449.00;;;;4973886;28;20734;-84
2023/12/20 09:53:45;;;;;;;1.20;1.10;;;11.00;77.00;9.70;96448.00;;;;4984531;28;20608;-83
2023/12/20 09:56:13;;;;;;;1.30;1.20;;;11.00;77.00;9.70;96457.00;;;;4968480;28;20255;-84
2023/12/20 09:58:41;;;;;;;1.13;1.13;;;11.00;77.00;9.70;96454.00;;;;4970451;28;20200;-84
2023/12/20 10:01:09;;;;;;;1.50;1.40;;;11.00;76.90;9.80;96452.00;;;;4970352;28;20269;-84
2023/12/20 10:03:36;;;;;;;1.10;1.10;;;11.10;77.10;9.80;96450.00;;;;4976617;28;20282;-84
2023/12/20 10:06:06;;;;;;;1.10;1.10;;;11.10;77.30;9.80;96444.00;;;;4968545;28;20282;-84
2023/12/20 10:08:33;;;;;;;1.37;1.27;;;11.10;77.40;9.90;96449.00;;;;4976548;28;20235;-84
2023/12/20 10:11:02;;;;;;;1.27;1.17;;;11.10;77.50;9.90;96444.00;;;;4968383;28;20242;-84
2023/12/20 10:13:29;;;;;;;1.40;1.30;;;11.10;77.50;10.00;96453.00;;;;4982240;28;20610;-84
2023/12/20 10:15:57;;;;;;;1.53;1.00;;;11.20;77.40;10.00;96452.00;;;;4973747;28;20258;-84
2023/12/20 10:18:24;;;;;;;1.20;1.10;;;11.30;77.40;10.00;96446.00;;;;4974671;28;20223;-84
2023/12/20 10:20:51;;;;;;;1.40;1.30;;;11.30;77.40;10.10;96440.00;;;;4981821;28;20311;-83
2023/12/20 10:23:20;;;;;;;1.17;1.07;;;11.30;77.30;10.10;96441.00;;;;4976766;28;20286;-84
2023/12/20 10:25:58;;;;;;;1.20;1.10;;;11.30;77.00;10.10;96448.00;;;;4979643;28;20231;-84
2023/12/20 10:28:27;;;;;;;1.00;1.00;;;11.40;76.80;10.10;96447.00;;;;4971364;28;20210;-84
2023/12/20 10:30:56;;;;;;;1.00;1.00;;;11.40;76.80;10.10;96448.00;;;;4984339;28;20208;-85
2023/12/20 10:33:26;;;;;;;1.00;1.00;;;11.40;76.60;10.10;96437.00;;;;4979906;28;20206;-85
2023/12/20 10:35:54;;;;;;;1.67;1.33;;;11.40;76.50;10.10;96429.00;;;;4980573;28;20230;-84
2023/12/20 10:38:23;;;;;;;1.20;1.10;;;11.40;76.40;10.10;96434.00;;;;4979941;28;20230;-84
2023/12/20 10:40:55;;;;;;;1.07;1.00;;;11.40;76.30;10.10;96440.00;;;;4975008;28;20227;-84
2023/12/20 10:43:26;;;;;;;1.07;1.07;;;11.40;76.40;10.10;96429.00;;;;4978177;28;20227;-84
2023/12/20 10:45:53;;;;;;;1.10;1.00;;;11.40;76.40;10.10;96425.00;;;;4978334;28;20223;-83
2023/12/20 10:48:22;;;;;;;1.50;1.40;;;11.40;76.40;10.10;96426.00;;;;4976269;28;20294;-84
2023/12/20 10:50:50;;;;;;;1.17;1.07;;;11.40;76.20;10.10;96423.00;;;;4973017;28;20258;-84
2023/12/20 10:53:18;;;;;;;1.00;1.00;;;11.40;76.20;10.10;96427.00;;;;4972938;28;20295;-84
2023/12/20 10:55:49;;;;;;;1.03;1.03;;;11.40;76.30;10.10;96437.00;;;;4978432;28;20263;-84
2023/12/20 10:58:21;;;;;;;1.00;1.00;;;11.40;76.30;10.10;96433.00;;;;4977960;28;20289;-84
2023/12/20 11:00:53;;;;;;;1.67;1.33;;;11.40;76.40;10.10;96431.00;;;;4979852;28;20231;-83
2023/12/20 11:03:24;;;;;;;1.20;1.10;;;11.40;76.40;10.10;96425.00;;;;4984383;28;20724;-84